Time;durP1;ratioP1;P1;durP2;ratioP2;P2;SDS_P1;SDS_P2;PMS_P1;PMS_P2;Temp;Humidity;BMP_temperature;BMP_pressure;BME280_temperature;BME280_humidity;BME280_pressure;Samples;Min_cycle;Max_cycle;Signal;HPM_P1;HPM_P2
2022/11/08 00:01:40;;;;;;;5.47;2.35;;;7.60;99.90;;;7.01;100.00;97242.28;5011764;28;20128;-45
2022/11/08 00:04:09;;;;;;;4.40;2.47;;;7.60;99.90;;;7.00;100.00;97228.31;5013750;28;20106;-44
2022/11/08 00:14:50;;;;;;;4.38;2.25;;;7.80;99.90;;;7.15;100.00;97226.22;5009127;28;20607;-44
2022/11/08 00:17:18;;;;;;;3.15;1.90;;;7.80;99.90;;;7.12;100.00;97219.25;5012835;28;20464;-45
2022/11/08 00:19:44;;;;;;;3.45;2.22;;;7.80;99.90;;;7.09;100.00;97221.97;5010128;28;20095;-44
2022/11/08 00:22:10;;;;;;;4.22;2.38;;;7.70;99.90;;;7.13;100.00;97220.16;5019932;28;20117;-45
2022/11/08 00:24:37;;;;;;;4.07;2.35;;;7.80;99.90;;;7.13;100.00;97220.16;5028583;28;20029;-46
2022/11/08 00:27:05;;;;;;;5.28;2.20;;;7.80;99.90;;;7.15;100.00;97224.44;5021427;28;20033;-45
2022/11/08 00:29:34;;;;;;;5.50;2.22;;;7.70;99.90;;;7.14;100.00;97220.09;5021931;28;20059;-45
2022/11/08 00:32:02;;;;;;;4.50;2.00;;;7.70;99.90;;;7.15;100.00;97218.34;5011611;28;20417;-46
2022/11/08 00:34:27;;;;;;;4.60;2.30;;;7.80;99.90;;;7.11;100.00;97222.81;5020936;28;20041;-48
2022/11/08 00:36:53;;;;;;;5.10;2.55;;;7.80;99.90;;;7.10;100.00;97215.81;5023615;28;20033;-45
2022/11/08 00:39:19;;;;;;;4.78;2.33;;;7.70;99.90;;;7.11;100.00;97214.94;5026007;28;20737;-45
2022/11/08 00:41:45;;;;;;;3.60;2.20;;;7.70;99.90;;;7.12;100.00;97218.41;5018886;28;20041;-44
2022/11/08 00:44:11;;;;;;;5.20;2.17;;;7.80;99.90;;;7.14;100.00;97208.75;5023430;28;20427;-45
2022/11/08 00:46:37;;;;;;;4.85;2.40;;;7.70;99.90;;;7.13;100.00;97213.13;5013914;28;20436;-43
2022/11/08 00:49:04;;;;;;;4.28;2.30;;;7.70;99.90;;;7.16;100.00;97209.56;5019696;28;20452;-45
2022/11/08 00:51:30;;;;;;;4.10;2.20;;;7.80;99.90;;;7.15;100.00;97208.69;5020771;28;20435;-45
2022/11/08 00:53:56;;;;;;;3.05;2.00;;;7.80;99.90;;;7.13;100.00;97213.13;5024558;28;20032;-44
2022/11/08 00:56:22;;;;;;;4.22;2.10;;;7.70;99.90;;;7.10;100.00;97205.34;5019308;28;20037;-43
2022/11/08 00:58:47;;;;;;;3.35;1.92;;;7.70;99.90;;;7.03;100.00;97201.16;5015545;28;20064;-43
2022/11/08 01:01:18;;;;;;;5.55;2.28;;;7.70;99.90;;;7.04;100.00;97206.34;5018400;28;20503;-44
2022/11/08 01:03:45;;;;;;;2.72;1.73;;;7.60;99.90;;;6.99;100.00;97203.00;5021048;28;20029;-43
2022/11/08 01:06:14;;;;;;;4.10;2.20;;;7.60;99.90;;;6.98;100.00;97205.66;5019816;28;20055;-43
2022/11/08 01:08:40;;;;;;;4.35;2.15;;;7.60;99.90;;;6.95;100.00;97197.88;5022363;28;20132;-43
2022/11/08 01:11:13;;;;;;;3.95;2.22;;;7.50;99.90;;;6.91;100.00;97186.63;5015712;28;20172;-44
2022/11/08 01:13:39;;;;;;;4.40;2.03;;;7.50;99.90;;;6.82;100.00;97176.34;5025846;28;20439;-44
2022/11/08 01:16:14;;;;;;;4.60;2.00;;;7.50;99.90;;;6.83;100.00;97194.66;5028161;28;20033;-45
2022/11/08 01:18:41;;;;;;;3.00;2.25;;;7.40;99.90;;;6.78;100.00;97190.44;5040020;22;20067;-46
2022/11/08 01:21:07;;;;;;;3.97;2.00;;;7.40;99.90;;;6.78;100.00;97193.06;5026283;28;20032;-46
2022/11/08 01:23:33;;;;;;;2.72;1.95;;;7.40;99.90;;;6.69;100.00;97175.78;5024611;28;20570;-48
2022/11/08 01:26:06;;;;;;;3.92;2.00;;;7.30;99.90;;;6.74;100.00;97183.56;5026249;28;20044;-47
2022/11/08 01:28:33;;;;;;;3.60;1.98;;;7.40;99.90;;;6.72;100.00;97174.88;5028894;28;20021;-47
2022/11/08 01:31:10;;;;;;;4.85;1.90;;;7.30;99.90;;;6.75;100.00;97173.03;5014429;28;20029;-46
2022/11/08 01:33:36;;;;;;;3.65;1.83;;;7.40;99.90;;;6.79;100.00;97176.44;5007451;28;20278;-46
2022/11/08 01:36:12;;;;;;;2.88;1.88;;;7.40;99.90;;;6.82;100.00;97179.84;5010240;28;20080;-46
2022/11/08 01:38:38;;;;;;;3.10;1.92;;;7.40;99.90;;;6.85;100.00;97177.13;5005297;28;20033;-48
2022/11/08 01:41:05;;;;;;;4.60;1.88;;;7.50;99.90;;;6.89;100.00;97175.28;5012091;28;20039;-47
2022/11/08 01:43:48;;;;;;;5.28;1.95;;;7.50;99.90;;;6.90;100.00;97163.06;5009892;28;20065;-47
2022/11/08 01:46:38;;;;;;;2.72;1.70;;;7.50;99.90;;;6.93;100.00;97170.81;5006282;28;20153;-47
2022/11/08 01:49:46;;;;;;;3.30;1.70;;;7.60;99.90;;;6.95;100.00;97164.66;5012306;28;20037;-46
2022/11/08 01:52:24;;;;;;;5.35;1.80;;;7.50;99.90;;;6.96;100.00;97157.63;5010481;28;20496;-45
2022/11/08 01:55:12;;;;;;;3.35;1.70;;;7.60;99.90;;;6.95;100.00;97153.31;5005621;28;20122;-45
2022/11/08 01:57:55;;;;;;;2.88;1.65;;;7.50;99.90;;;6.93;100.00;97153.34;5000283;28;20434;-46
2022/11/08 02:00:20;;;;;;;;;;;7.50;99.90;;;6.90;100.00;97147.31;5009536;28;20053;-47
2022/11/08 02:03:01;;;;;;;3.90;1.77;;;7.50;99.90;;;6.84;100.00;97140.50;5006961;28;20095;-46
2022/11/08 02:05:29;;;;;;;2.42;1.70;;;7.50;99.90;;;6.76;100.00;97131.94;5019618;28;20041;-46
2022/11/08 02:08:23;;;;;;;3.45;1.85;;;7.40;99.90;;;6.70;100.00;97130.34;5002863;28;20021;-45
2022/11/08 02:10:51;;;;;;;2.95;1.75;;;7.30;99.90;;;6.66;100.00;97120.88;5000460;28;20498;-44
2022/11/08 02:13:25;;;;;;;2.78;1.70;;;7.30;99.90;;;6.62;100.00;97117.47;4999934;28;20029;-46
2022/11/08 02:15:51;;;;;;;3.63;1.90;;;7.20;99.90;;;6.60;100.00;97118.38;5007011;28;20040;-46
2022/11/08 02:18:20;;;;;;;3.92;2.35;;;7.20;99.90;;;6.59;100.00;97116.69;5004934;28;20171;-44
2022/11/08 02:20:59;;;;;;;4.20;1.83;;;7.20;99.90;;;6.57;100.00;97119.34;5001110;28;20120;-45
2022/11/08 02:23:29;;;;;;;2.42;1.55;;;7.20;99.90;;;6.56;100.00;97112.34;5002657;28;20030;-46
2022/11/08 02:25:55;;;;;;;3.05;1.80;;;7.20;99.90;;;6.55;100.00;97110.66;5004077;28;20493;-46
2022/11/08 02:28:21;;;;;;;3.72;1.95;;;7.10;99.90;;;6.52;100.00;97108.09;5007908;28;20033;-45
2022/11/08 02:30:46;;;;;;;4.15;1.80;;;7.10;99.90;;;6.47;100.00;97105.59;5009977;28;20036;-47
2022/11/08 02:33:21;;;;;;;3.75;1.80;;;7.10;99.90;;;6.43;100.00;97100.47;5006410;28;20033;-46
2022/11/08 02:35:50;;;;;;;4.13;2.17;;;7.00;99.90;;;6.33;100.00;97097.22;4999523;28;20539;-49
2022/11/08 02:38:17;;;;;;;3.60;1.65;;;7.00;99.90;;;6.33;100.00;97096.38;5000435;28;20075;-48
2022/11/08 02:40:52;;;;;;;2.60;1.77;;;6.90;99.90;;;6.25;100.00;97091.31;5001981;28;20252;-48
2022/11/08 02:43:19;;;;;;;2.90;1.60;;;6.90;99.90;;;6.24;100.00;97094.81;5003172;28;20048;-48
2022/11/08 02:45:45;;;;;;;3.55;1.75;;;6.90;99.90;;;6.21;100.00;97093.16;4998362;28;20091;-48
2022/11/08 02:48:11;;;;;;;3.20;2.05;;;6.90;99.90;;;6.18;100.00;97093.22;5004353;28;20029;-47
2022/11/08 02:50:37;;;;;;;3.75;1.88;;;6.80;99.90;;;6.19;100.00;97094.97;5005059;28;20090;-46
2022/11/08 02:53:03;;;;;;;3.38;2.10;;;6.80;99.90;;;6.10;100.00;97075.09;5008990;28;20038;-49
2022/11/08 02:55:30;;;;;;;4.63;1.90;;;6.80;99.90;;;6.10;100.00;97079.44;5003071;28;20080;-45
2022/11/08 02:57:56;;;;;;;3.28;1.83;;;6.80;99.90;;;6.12;100.00;97088.16;5012326;28;20018;-47
2022/11/08 03:00:21;;;;;;;3.85;1.85;;;6.70;99.90;;;6.13;100.00;97081.16;5009318;28;20271;-45
2022/11/08 03:02:51;;;;;;;5.20;1.70;;;6.80;99.90;;;6.12;100.00;97085.53;5012900;28;20034;-47
2022/11/08 03:05:17;;;;;;;4.20;1.90;;;6.70;99.90;;;6.09;100.00;97078.59;5002144;28;20025;-48
2022/11/08 03:07:43;;;;;;;4.15;2.45;;;6.70;99.90;;;6.11;100.00;97076.78;5004166;28;20417;-48
2022/11/08 03:10:10;;;;;;;3.97;1.85;;;6.70;99.90;;;5.97;100.00;97052.72;5005434;28;20037;-49
2022/11/08 03:12:37;;;;;;;3.80;1.95;;;6.70;99.90;;;6.13;100.00;97084.63;5005307;28;20982;-45
2022/11/08 03:15:04;;;;;;;2.60;1.70;;;6.70;99.90;;;6.07;100.00;97058.59;5009081;28;20344;-47
2022/11/08 03:17:30;;;;;;;3.40;1.83;;;6.80;99.90;;;6.10;100.00;97075.09;5009751;28;20827;-44
2022/11/08 03:19:56;;;;;;;3.28;1.67;;;6.70;99.90;;;6.05;100.00;97071.72;5007309;28;20029;-47
2022/11/08 03:22:22;;;;;;;2.45;1.50;;;6.70;99.90;;;6.01;100.00;97072.69;5005551;28;20312;-47
2022/11/08 03:24:48;;;;;;;2.90;1.73;;;6.70;99.90;;;6.01;100.00;97080.56;5006950;28;20033;-50
2022/11/08 03:27:14;;;;;;;2.97;1.80;;;6.60;99.90;;;5.95;100.00;97070.19;5000717;28;20038;-48
2022/11/08 03:29:41;;;;;;;3.97;1.70;;;6.60;99.90;;;5.95;100.00;97077.19;4996375;28;20726;-48
2022/11/08 03:32:06;;;;;;;3.33;1.85;;;6.60;99.90;;;5.92;100.00;97071.13;5003740;28;20033;-51
2022/11/08 03:34:32;;;;;;;2.58;1.63;;;6.50;99.90;;;5.90;100.00;97074.66;5006763;28;20042;-51
2022/11/08 03:36:58;;;;;;;7.63;1.98;;;6.50;99.90;;;5.87;100.00;97078.22;5005804;28;20040;-47
2022/11/08 03:39:23;;;;;;;2.60;1.73;;;6.50;99.90;;;5.88;100.00;97079.94;4999638;28;20048;-45
2022/11/08 03:41:49;;;;;;;4.25;1.77;;;6.50;99.90;;;5.88;100.00;97071.22;5000636;28;20129;-50
2022/11/08 03:47:56;;;;;;;3.10;2.17;;;6.50;99.90;;;5.92;100.00;97075.47;4993324;28;20075;-49
2022/11/08 03:50:22;;;;;;;3.85;1.80;;;6.60;99.90;;;5.92;100.00;97080.72;5006520;28;20033;-46
2022/11/08 03:52:51;;;;;;;2.47;1.70;;;6.60;99.90;;;5.93;100.00;97070.22;5005835;28;20065;-46
2022/11/08 03:55:19;;;;;;;4.80;2.38;;;6.60;99.90;;;5.92;100.00;97068.50;5002939;28;21258;-49
2022/11/08 03:57:47;;;;;;;3.28;1.80;;;6.60;99.90;;;5.74;100.00;97037.50;4999762;28;20041;-50
2022/11/08 04:00:17;;;;;;;2.58;1.70;;;6.60;99.90;;;5.92;100.00;97068.50;5005693;28;20041;-46
2022/11/08 04:02:43;;;;;;;2.97;2.00;;;6.60;99.90;;;5.83;100.00;97057.38;5003120;28;20029;-49
2022/11/08 04:05:11;;;;;;;2.25;1.85;;;6.60;99.90;;;5.83;100.00;97062.63;5002123;28;20017;-47
2022/11/08 04:07:37;;;;;;;2.90;1.88;;;6.50;99.90;;;5.85;100.00;97072.16;5006954;28;20107;-47
2022/11/08 04:10:05;;;;;;;3.22;1.80;;;6.50;99.90;;;5.81;100.00;97070.50;5007098;28;20029;-47
2022/11/08 04:15:20;;;;;;;4.57;1.90;;;6.50;99.90;;;5.79;100.00;97074.91;5005322;28;20511;-51
2022/11/08 04:23:36;;;;;;;3.20;1.90;;;6.50;99.90;;;5.83;100.00;97060.00;5006545;28;20041;-48
2022/11/08 04:26:06;;;;;;;3.28;1.90;;;6.50;99.90;;;5.83;100.00;97058.25;5006085;28;20040;-48
2022/11/08 04:28:35;;;;;;;4.82;1.70;;;6.50;99.90;;;5.85;100.00;97061.69;5002008;28;20041;-50
2022/11/08 04:31:12;;;;;;;4.47;2.03;;;6.50;99.90;;;5.89;100.00;97062.50;5002076;28;20131;-49
2022/11/08 04:33:37;;;;;;;2.47;1.70;;;6.50;99.90;;;5.92;100.00;97060.66;5002583;28;20033;-47
2022/11/08 04:36:07;;;;;;;3.78;1.92;;;6.60;99.90;;;5.93;100.00;97054.50;5006500;28;20474;-51
2022/11/08 04:38:33;;;;;;;5.30;2.08;;;6.60;99.90;;;5.92;100.00;97050.19;5000774;28;20099;-50
2022/11/08 04:41:01;;;;;;;2.85;1.80;;;6.60;99.90;;;5.95;100.00;97045.78;4998248;28;20344;-51
2022/11/08 04:43:29;;;;;;;2.15;1.60;;;6.60;99.90;;;5.93;100.00;97038.81;5003342;28;20072;-50
2022/11/08 04:46:04;;;;;;;3.38;1.77;;;6.60;99.90;;;5.92;100.00;97034.47;5000467;28;20038;-50
2022/11/08 04:48:30;;;;;;;4.32;1.98;;;6.60;99.90;;;5.91;100.00;97029.28;5004308;28;20033;-50
2022/11/08 04:51:02;;;;;;;3.50;1.50;;;6.60;99.90;;;5.90;100.00;97025.81;4994499;28;20056;-49
2022/11/08 04:53:28;;;;;;;3.30;1.85;;;6.60;99.90;;;5.80;100.00;97003.38;5005285;28;20026;-49
2022/11/08 04:56:06;;;;;;;3.53;1.90;;;6.60;99.90;;;5.89;100.00;97025.84;5001800;28;20049;-50
2022/11/08 04:58:35;;;;;;;4.70;1.98;;;6.60;99.90;;;5.87;100.00;97023.25;5002995;28;20037;-49
2022/11/08 05:01:03;;;;;;;4.45;2.20;;;6.50;99.90;;;5.87;100.00;97019.78;5003873;28;20037;-50
2022/11/08 05:03:30;;;;;;;4.45;2.17;;;6.50;99.90;;;5.88;100.00;97027.56;5006061;28;20034;-52
2022/11/08 05:05:59;;;;;;;3.15;1.98;;;6.50;99.90;;;5.86;100.00;97012.81;5003115;28;20091;-48
2022/11/08 05:08:25;;;;;;;4.03;2.38;;;6.50;99.90;;;5.80;100.00;97005.13;5003914;28;20029;-50
2022/11/08 05:10:51;;;;;;;4.53;2.65;;;6.50;99.90;;;5.76;100.00;97009.59;5003062;28;20041;-49
2022/11/08 05:13:16;;;;;;;3.22;2.10;;;6.40;99.90;;;5.74;100.00;97016.59;4999013;28;20188;-49
2022/11/08 05:15:42;;;;;;;4.47;2.42;;;6.40;99.90;;;5.75;100.00;97005.22;4998590;28;20044;-49
2022/11/08 05:18:08;;;;;;;2.58;1.88;;;6.40;99.90;;;5.73;100.00;97001.81;5010530;28;20493;-49
2022/11/08 05:23:23;;;;;;;3.22;2.03;;;6.40;99.90;;;5.75;100.00;97018.31;5008430;28;20541;-49
2022/11/08 05:25:53;;;;;;;4.43;1.90;;;6.40;99.90;;;5.76;100.00;97019.16;5005759;28;20683;-49
2022/11/08 05:28:19;;;;;;;2.20;1.90;;;6.40;99.90;;;5.73;100.00;97018.34;5005590;28;20094;-50
2022/11/08 05:30:55;;;;;;;2.72;1.73;;;6.40;99.90;;;5.58;100.00;96987.34;5003824;28;20025;-50
2022/11/08 05:33:21;;;;;;;3.38;2.00;;;6.40;99.90;;;5.78;100.00;97020.00;5009287;28;20026;-49
2022/11/08 05:35:46;;;;;;;4.45;1.90;;;6.40;99.90;;;5.71;100.00;97006.22;5003633;28;20029;-46
2022/11/08 05:38:12;;;;;;;4.97;1.65;;;6.40;99.90;;;5.70;100.00;97007.09;5010962;28;20048;-50
2022/11/08 05:40:38;;;;;;;2.33;1.48;;;6.40;99.90;;;5.76;100.00;97009.59;4988377;28;21659;-51
2022/11/08 05:43:04;;;;;;;6.55;1.90;;;6.40;99.90;;;5.73;100.00;97001.81;5004457;28;20045;-48
2022/11/08 05:45:29;;;;;;;4.68;1.80;;;6.40;99.90;;;5.77;100.00;96998.22;5000519;28;20083;-49
2022/11/08 05:47:56;;;;;;;2.60;1.88;;;6.40;99.90;;;5.79;100.00;97006.03;5009727;28;20095;-48
2022/11/08 05:50:23;;;;;;;2.20;1.65;;;6.40;99.90;;;5.81;100.00;97004.22;5003056;28;20036;-48
2022/11/08 05:52:53;;;;;;;5.68;1.88;;;6.40;99.90;;;5.80;100.00;96992.06;5004316;28;20033;-49
2022/11/08 05:55:18;;;;;;;4.20;1.70;;;6.50;99.90;;;5.79;100.00;97000.78;5008692;28;20061;-51
2022/11/08 05:57:44;;;;;;;3.30;1.80;;;6.40;99.90;;;5.79;100.00;97006.88;5004440;28;20513;-48
2022/11/08 06:00:11;;;;;;;2.22;1.50;;;6.40;99.90;;;5.77;100.00;97002.59;5002055;28;20068;-50
2022/11/08 06:02:38;;;;;;;2.33;1.52;;;6.40;99.90;;;5.70;100.00;97000.09;4998687;28;20041;-47
2022/11/08 06:05:05;;;;;;;3.30;1.75;;;6.40;99.90;;;5.51;100.00;96975.31;5019422;28;20044;-50
2022/11/08 06:07:30;;;;;;;3.85;1.77;;;6.30;99.90;;;5.64;100.00;97005.50;5002890;28;20629;-49
2022/11/08 06:09:56;;;;;;;2.85;1.50;;;6.30;99.90;;;5.61;100.00;96999.47;4992737;28;20045;-44
2022/11/08 06:12:22;;;;;;;3.30;1.60;;;6.30;99.90;;;5.56;100.00;96999.56;5000951;28;20107;-48
2022/11/08 06:14:48;;;;;;;4.88;1.67;;;6.20;99.90;;;5.56;100.00;97007.41;5003942;28;20037;-49
2022/11/08 06:17:14;;;;;;;3.05;1.90;;;6.20;99.90;;;5.54;100.00;97001.38;5000356;28;20044;-46
2022/11/08 06:19:40;;;;;;;4.75;2.60;;;6.20;99.90;;;5.57;100.00;97000.44;5004552;28;20367;-51
2022/11/08 06:22:05;;;;;;;3.40;2.20;;;6.20;99.90;;;5.61;100.00;97004.69;5000534;28;20045;-46
2022/11/08 06:24:31;;;;;;;5.68;2.30;;;6.30;99.90;;;5.59;100.00;96996.88;4995819;28;20036;-46
2022/11/08 06:26:57;;;;;;;4.20;2.50;;;6.20;99.90;;;5.59;100.00;96993.41;4992406;28;20428;-48
2022/11/08 06:29:22;;;;;;;4.90;2.38;;;6.30;99.90;;;5.57;100.00;96996.06;5002813;28;20528;-49
2022/11/08 06:31:48;;;;;;;2.33;1.70;;;6.20;99.90;;;5.55;100.00;96993.47;5011372;28;20014;-51
2022/11/08 06:34:14;;;;;;;3.33;2.15;;;6.20;99.90;;;5.55;100.00;97000.47;5011400;28;20037;-48
2022/11/08 06:36:39;;;;;;;2.83;2.17;;;6.20;99.90;;;5.55;100.00;96998.72;5012866;28;20497;-48
2022/11/08 06:39:05;;;;;;;2.58;1.70;;;6.20;99.90;;;5.57;100.00;97001.31;5010734;28;20037;-46
2022/11/08 06:41:32;;;;;;;3.13;1.88;;;6.30;99.90;;;5.61;100.00;97002.09;5012108;28;20122;-49
2022/11/08 06:43:58;;;;;;;2.45;1.90;;;6.30;99.90;;;5.62;100.00;96996.81;5009977;28;20076;-49
2022/11/08 06:46:23;;;;;;;3.83;2.15;;;6.30;99.90;;;5.69;100.00;96994.94;5010757;28;20520;-49
2022/11/08 06:48:49;;;;;;;4.47;2.15;;;6.40;99.90;;;5.73;100.00;96993.94;5010998;28;20577;-48
2022/11/08 06:51:15;;;;;;;8.57;2.25;;;6.40;99.90;;;5.79;100.00;96999.03;5014985;28;20219;-48
2022/11/08 06:53:41;;;;;;;4.10;2.03;;;6.50;99.90;;;5.89;100.00;97002.28;5014910;28;20052;-46
2022/11/08 06:56:07;;;;;;;4.85;2.70;;;6.50;99.90;;;5.98;100.00;96994.25;5003837;28;20053;-50
2022/11/08 06:58:33;;;;;;;4.68;2.40;;;6.60;99.90;;;6.09;100.00;97001.81;5006816;28;20709;-47
2022/11/08 07:01:03;;;;;;;6.28;2.83;;;6.70;99.90;;;6.15;100.00;96991.19;5007065;28;20091;-46
2022/11/08 07:03:29;;;;;;;4.22;2.63;;;6.80;99.90;;;6.22;100.00;96994.50;5005922;28;20154;-47
2022/11/08 07:05:54;;;;;;;4.28;2.30;;;6.90;99.90;;;6.27;100.00;96996.09;5012062;28;20140;-49
2022/11/08 07:08:20;;;;;;;5.63;2.63;;;6.90;99.90;;;6.31;100.00;96999.50;5015171;28;20045;-46
2022/11/08 07:10:46;;;;;;;6.30;3.17;;;7.00;99.90;;;6.27;100.00;96988.25;5012225;28;20036;-47
2022/11/08 07:13:13;;;;;;;6.22;2.50;;;6.90;99.90;;;6.37;100.00;97003.72;5006649;28;20529;-46
2022/11/08 07:15:40;;;;;;;4.32;2.60;;;7.00;99.90;;;6.43;100.00;97009.66;5014653;28;20029;-49
2022/11/08 07:18:09;;;;;;;5.57;2.65;;;7.10;99.90;;;6.52;100.00;97013.78;5012962;28;20165;-46
2022/11/08 07:20:35;;;;;;;6.75;2.20;;;7.20;99.90;;;6.64;100.00;97013.47;5041731;22;20050;-41
2022/11/08 07:23:01;;;;;;;4.00;2.22;;;7.30;99.90;;;6.79;100.00;97014.78;5030290;28;20036;-41
2022/11/08 07:25:28;;;;;;;4.10;2.03;;;7.40;99.90;;;6.99;100.00;97021.22;5029918;28;20025;-42
2022/11/08 07:27:56;;;;;;;3.00;1.70;;;7.60;99.90;;;7.22;100.00;97017.94;5028583;28;20109;-39
2022/11/08 07:30:22;;;;;;;4.85;1.80;;;7.90;99.90;;;7.44;100.00;97013.75;5022079;28;20036;-42
2022/11/08 07:32:47;;;;;;;2.70;1.50;;;8.10;99.90;;;7.47;100.00;96994.44;5017129;28;20018;-43
2022/11/08 07:35:13;;;;;;;2.63;1.40;;;8.20;99.90;;;7.77;100.00;97015.38;5015853;28;20429;-42
2022/11/08 07:37:39;;;;;;;4.25;1.60;;;8.40;99.90;;;7.86;100.00;97024.72;5002914;28;20033;-43
2022/11/08 07:40:05;;;;;;;2.58;1.30;;;8.50;99.90;;;7.92;100.00;97025.38;5005089;28;20041;-43
2022/11/08 07:42:36;;;;;;;3.47;1.40;;;8.60;99.90;;;7.99;100.00;97023.44;5006216;28;20267;-46
2022/11/08 07:45:03;;;;;;;2.80;1.60;;;8.60;99.90;;;7.93;100.00;97013.09;5005604;28;20208;-42
2022/11/08 07:47:28;;;;;;;5.07;1.60;;;8.60;99.90;;;7.91;100.00;97012.31;5008488;28;20331;-42
2022/11/08 07:49:54;;;;;;;2.92;1.35;;;8.60;99.90;;;7.91;100.00;97009.69;5008441;28;20026;-42
2022/11/08 07:52:20;;;;;;;3.28;1.58;;;8.50;99.90;;;7.88;100.00;97007.16;5004837;28;20037;-43
2022/11/08 07:54:45;;;;;;;4.35;1.80;;;8.50;99.90;;;7.83;100.00;96989.78;5005660;28;20486;-42
2022/11/08 07:57:11;;;;;;;4.10;2.42;;;8.50;99.90;;;7.81;100.00;96969.75;5007483;28;20037;-43
2022/11/08 07:59:37;;;;;;;3.92;2.30;;;8.50;99.90;;;7.83;100.00;96970.56;5010716;28;22415;-44
2022/11/08 08:02:03;;;;;;;5.18;1.90;;;8.50;99.90;;;7.89;100.00;96964.25;5007130;28;20053;-42
2022/11/08 08:04:29;;;;;;;8.32;2.35;;;8.60;99.90;;;7.94;100.00;96957.06;5009732;28;20090;-42
2022/11/08 08:06:57;;;;;;;3.92;1.95;;;8.60;99.90;;;8.05;100.00;96965.44;5005893;28;20041;-44
2022/11/08 08:09:22;;;;;;;4.53;2.45;;;8.70;99.90;;;8.20;100.00;96961.44;5010728;28;20025;-47
2022/11/08 08:11:48;;;;;;;3.92;2.03;;;8.90;99.90;;;8.43;100.00;96979.06;5009586;28;20478;-44
2022/11/08 08:14:14;;;;;;;3.58;1.73;;;9.10;99.90;;;8.68;100.00;96983.44;5013737;28;20404;-43
2022/11/08 08:16:39;;;;;;;4.40;1.80;;;9.30;99.90;;;8.95;100.00;97000.88;5010975;28;20143;-44
2022/11/08 08:19:05;;;;;;;3.97;1.60;;;9.60;99.90;;;9.22;100.00;96986.72;5010623;28;20448;-44
2022/11/08 08:21:31;;;;;;;5.80;2.25;;;9.90;99.90;;;9.50;100.00;96997.91;5010367;28;20964;-43
2022/11/08 08:23:57;;;;;;;5.10;2.00;;;10.10;99.90;;;9.72;100.00;97005.78;5013040;28;20502;-46
2022/11/08 08:26:23;;;;;;;3.50;1.30;;;10.30;99.90;;;9.85;100.00;96992.13;5015476;28;20040;-46
2022/11/08 08:28:49;;;;;;;4.68;1.60;;;10.60;99.90;;;10.19;100.00;97017.09;5012675;28;20259;-46
2022/11/08 08:31:15;;;;;;;2.63;1.85;;;10.80;99.90;;;10.42;100.00;97021.44;5012233;28;20059;-42
2022/11/08 08:33:40;;;;;;;3.35;1.70;;;11.10;99.90;;;10.66;100.00;97016.91;5014280;28;20113;-42
2022/11/08 08:36:06;;;;;;;4.10;1.45;;;11.30;99.90;;;10.84;100.00;97013.47;5013024;28;20062;-44
2022/11/08 08:38:33;;;;;;;2.60;1.45;;;11.50;99.90;;;11.06;100.00;97012.50;5012101;28;20033;-44
2022/11/08 08:41:01;;;;;;;4.57;1.38;;;11.70;99.90;;;11.16;100.00;97003.25;5015455;28;20025;-45
2022/11/08 08:43:28;;;;;;;2.75;1.20;;;11.80;99.90;;;11.25;100.00;97009.88;5014860;28;20041;-44
2022/11/08 08:45:58;;;;;;;2.35;1.40;;;11.90;99.90;;;11.27;100.00;97011.53;5011307;28;20120;-45
2022/11/08 08:48:24;;;;;;;3.28;1.52;;;11.90;99.90;;;11.31;100.00;97019.31;5013146;28;20029;-46
2022/11/08 08:50:50;;;;;;;3.80;1.33;;;11.90;99.90;;;11.32;100.00;97015.72;5013878;28;20032;-47
2022/11/08 08:53:16;;;;;;;3.17;1.55;;;11.90;99.90;;;11.29;100.00;97016.75;5011724;28;20029;-45
2022/11/08 08:55:41;;;;;;;3.75;1.48;;;11.90;99.90;;;11.26;100.00;97020.38;5013344;28;20173;-43
2022/11/08 08:58:08;;;;;;;2.53;1.30;;;11.90;99.90;;;11.27;100.00;97024.72;5012489;28;20416;-43
2022/11/08 09:00:34;;;;;;;5.45;1.83;;;11.90;99.90;;;11.26;100.00;97028.28;5011192;28;20049;-45
2022/11/08 09:03:09;;;;;;;3.75;1.30;;;11.90;99.90;;;11.21;100.00;97019.72;5015806;28;20527;-45
2022/11/08 09:05:35;;;;;;;4.13;1.50;;;11.80;99.90;;;11.12;100.00;97022.78;5014734;28;20108;-44
2022/11/08 09:08:02;;;;;;;2.17;1.60;;;11.80;99.90;;;11.06;100.00;97026.56;5016163;28;20052;-46
2022/11/08 09:10:28;;;;;;;2.53;1.40;;;11.70;99.90;;;11.00;100.00;97029.47;5015702;28;20068;-47
2022/11/08 09:12:54;;;;;;;2.30;1.67;;;11.60;99.90;;;10.92;100.00;97036.00;5016954;28;20025;-46
2022/11/08 09:15:21;;;;;;;5.25;1.65;;;11.50;99.90;;;10.83;100.00;97040.75;5018489;28;20042;-44
2022/11/08 09:17:46;;;;;;;2.90;1.63;;;11.40;99.90;;;10.81;100.00;97032.06;5013744;28;20144;-44
2022/11/08 09:20:13;;;;;;;3.85;1.60;;;11.40;99.90;;;10.85;100.00;97032.78;5015162;28;20052;-46
2022/11/08 09:22:39;;;;;;;2.67;1.65;;;11.40;99.90;;;10.87;100.00;97030.94;5016065;28;20037;-42
2022/11/08 09:25:05;;;;;;;3.03;1.50;;;11.50;99.90;;;10.75;100.00;97021.78;5014457;28;20034;-46
2022/11/08 09:27:32;;;;;;;2.55;1.63;;;11.40;99.90;;;10.81;100.00;97042.59;5015246;28;20135;-44
2022/11/08 09:29:58;;;;;;;2.88;1.58;;;11.40;99.90;;;10.78;100.00;97045.38;5010096;28;20034;-46
2022/11/08 09:32:28;;;;;;;3.72;1.50;;;11.40;99.90;;;10.67;100.00;97045.00;5015576;28;20026;-47
2022/11/08 09:34:55;;;;;;;3.13;1.60;;;11.30;99.90;;;10.61;100.00;97050.53;5012361;28;20033;-46
2022/11/08 09:37:22;;;;;;;3.10;1.50;;;11.20;99.90;;;10.49;100.00;97042.22;5015240;28;20186;-45
2022/11/08 09:39:47;;;;;;;2.80;1.50;;;11.10;99.90;;;10.47;100.00;97048.47;5015217;28;20041;-47
2022/11/08 09:42:39;;;;;;;4.13;1.58;;;11.00;99.90;;;10.44;100.00;97044.16;5014252;28;20044;-47
2022/11/08 09:45:11;;;;;;;4.03;1.92;;;11.00;99.90;;;10.41;100.00;97049.59;5015998;28;20119;-47
2022/11/08 09:47:39;;;;;;;3.63;1.60;;;11.00;99.90;;;10.41;100.00;97048.72;5015700;28;20028;-44
2022/11/08 09:50:24;;;;;;;2.85;1.80;;;11.00;99.90;;;10.47;100.00;97048.47;5014590;28;20311;-47
2022/11/08 09:53:30;;;;;;;3.85;1.70;;;11.10;99.90;;;10.54;100.00;97047.28;5027954;28;20037;-48
2022/11/08 09:56:03;;;;;;;2.38;1.48;;;11.10;99.90;;;10.68;100.00;97054.63;5031325;28;20029;-45
2022/11/08 09:58:44;;;;;;;2.63;1.50;;;11.30;99.90;;;10.64;100.00;97030.16;5013076;28;20022;-46
2022/11/08 10:01:12;;;;;;;1.88;1.15;;;11.40;99.90;;;10.93;100.00;97053.53;5030022;28;20025;-44
2022/11/08 10:03:38;;;;;;;2.90;1.38;;;11.50;99.90;;;11.07;100.00;97046.75;5017235;28;20498;-46
2022/11/08 10:06:27;;;;;;;2.78;1.20;;;11.60;99.90;;;11.26;100.00;97052.03;5032924;28;20064;-47
2022/11/08 10:08:59;;;;;;;2.28;1.38;;;11.90;99.90;;;11.53;100.00;97049.06;5013934;28;20060;-44
2022/11/08 10:11:54;;;;;;;2.05;1.13;;;12.10;99.90;;;11.86;100.00;97045.75;5016024;28;20413;-47
2022/11/08 10:14:49;;;;;;;3.25;1.30;;;12.40;99.90;;;12.13;100.00;97042.75;5016082;28;20037;-46
2022/11/08 10:17:40;;;;;;;1.35;1.10;;;12.70;99.90;;;12.33;99.84;97042.66;4949137;28;20055;-47
2022/11/08 10:20:35;;;;;;;1.90;1.10;;;12.80;99.90;;;12.46;96.78;97045.53;5011463;28;20026;-45
2022/11/08 10:23:37;;;;;;;1.92;0.90;;;13.00;99.90;;;12.58;94.00;97052.00;5017031;28;20251;-46
2022/11/08 10:26:18;;;;;;;3.13;0.90;;;13.10;99.90;;;12.64;95.55;97046.38;5018377;28;21027;-47
2022/11/08 10:28:55;;;;;;;2.83;1.17;;;13.20;99.90;;;12.67;94.47;97034.78;5014790;28;20500;-46
2022/11/08 10:31:21;;;;;;;1.02;0.90;;;13.20;99.90;;;12.68;94.90;97033.84;5019226;28;20651;-47
2022/11/08 10:33:50;;;;;;;1.40;0.80;;;13.20;99.90;;;12.68;96.73;97039.16;5012916;28;20079;-44
2022/11/08 10:36:40;;;;;;;2.00;1.15;;;13.20;99.90;;;12.49;97.08;97011.00;5013638;28;20393;-43
2022/11/08 10:39:08;;;;;;;1.35;0.82;;;13.10;99.90;;;12.41;98.51;97007.88;5017364;28;20092;-47
2022/11/08 10:41:47;;;;;;;1.23;0.90;;;13.10;99.90;;;12.45;99.61;97027.94;5014048;28;20273;-47
2022/11/08 10:44:19;;;;;;;1.20;0.90;;;12.90;99.90;;;12.37;100.00;97022.19;5011423;28;20433;-46
2022/11/08 10:46:50;;;;;;;;;;;12.80;99.90;;;12.32;100.00;97017.13;5014615;28;20022;-45
2022/11/08 10:49:38;;;;;;;1.35;1.10;;;12.80;99.90;;;12.30;100.00;97012.84;5017070;28;19917;-48
2022/11/08 10:52:33;;;;;;;2.10;1.05;;;12.80;99.90;;;12.43;99.12;97026.31;5016507;28;20202;-47
2022/11/08 10:55:00;;;;;;;2.45;0.90;;;12.90;99.90;;;12.57;97.79;97023.81;5010536;28;20276;-48